sensor_id;sensor_type;location;lat;lon;timestamp;P1;durP1;ratioP1;P2;durP2;ratioP2
32788;SDS011;19141;48.980;8.410;2023-02-15T05:22:32;34.58;;;9.15;;
32788;SDS011;19141;48.980;8.410;2023-02-15T05:24:57;25.67;;;10.00;;
32788;SDS011;19141;48.980;8.410;2023-02-15T05:27:41;38.75;;;11.85;;
32788;SDS011;19141;48.980;8.410;2023-02-15T05:30:25;20.70;;;9.98;;
32788;SDS011;19141;48.980;8.410;2023-02-15T05:32:50;27.70;;;11.95;;
32788;SDS011;19141;48.980;8.410;2023-02-15T05:35:16;29.08;;;11.18;;
32788;SDS011;19141;48.980;8.410;2023-02-15T05:37:42;16.58;;;8.25;;
32788;SDS011;19141;48.980;8.410;2023-02-15T05:40:07;43.03;;;12.85;;
32788;SDS011;19141;48.980;8.410;2023-02-15T05:42:33;34.03;;;13.20;;
32788;SDS011;19141;48.980;8.410;2023-02-15T05:44:58;26.42;;;9.55;;
32788;SDS011;19141;48.980;8.410;2023-02-15T05:47:24;23.65;;;9.65;;
32788;SDS011;19141;48.980;8.410;2023-02-15T05:49:49;26.52;;;10.30;;
32788;SDS011;19141;48.980;8.410;2023-02-15T05:52:15;26.08;;;10.32;;
32788;SDS011;19141;48.980;8.410;2023-02-15T05:54:40;23.55;;;9.80;;
32788;SDS011;19141;48.980;8.410;2023-02-15T05:57:05;27.70;;;11.18;;
32788;SDS011;19141;48.980;8.410;2023-02-15T05:59:31;27.55;;;8.68;;
32788;SDS011;19141;48.980;8.410;2023-02-15T06:01:56;30.08;;;12.48;;
32788;SDS011;19141;48.980;8.410;2023-02-15T06:04:21;30.90;;;12.48;;
32788;SDS011;19141;48.980;8.410;2023-02-15T06:06:47;24.77;;;10.02;;
32788;SDS011;19141;48.980;8.410;2023-02-15T06:09:12;28.02;;;10.18;;
32788;SDS011;19141;48.980;8.410;2023-02-15T06:11:38;30.67;;;11.55;;
32788;SDS011;19141;48.980;8.410;2023-02-15T06:14:03;24.58;;;10.00;;
32788;SDS011;19141;48.980;8.410;2023-02-15T06:16:29;25.55;;;10.20;;
32788;SDS011;19141;48.980;8.410;2023-02-15T06:18:55;28.25;;;9.52;;
32788;SDS011;19141;48.980;8.410;2023-02-15T06:21:20;20.85;;;8.05;;
32788;SDS011;19141;48.980;8.410;2023-02-15T06:23:46;27.40;;;12.35;;
32788;SDS011;19141;48.980;8.410;2023-02-15T06:26:11;21.17;;;10.20;;
32788;SDS011;19141;48.980;8.410;2023-02-15T06:28:36;28.70;;;10.93;;
32788;SDS011;19141;48.980;8.410;2023-02-15T06:31:02;33.53;;;11.73;;
32788;SDS011;19141;48.980;8.410;2023-02-15T06:33:28;27.77;;;9.45;;
32788;SDS011;19141;48.980;8.410;2023-02-15T06:35:55;27.17;;;10.93;;
32788;SDS011;19141;48.980;8.410;2023-02-15T06:38:21;27.00;;;10.43;;
32788;SDS011;19141;48.980;8.410;2023-02-15T06:40:47;26.10;;;7.72;;
32788;SDS011;19141;48.980;8.410;2023-02-15T06:43:12;31.05;;;10.50;;
32788;SDS011;19141;48.980;8.410;2023-02-15T06:45:38;31.90;;;9.50;;
32788;SDS011;19141;48.980;8.410;2023-02-15T06:48:04;27.02;;;8.88;;
32788;SDS011;19141;48.980;8.410;2023-02-15T06:52:57;22.63;;;8.00;;
32788;SDS011;19141;48.980;8.410;2023-02-15T06:55:23;31.80;;;9.48;;
32788;SDS011;19141;48.980;8.410;2023-02-15T06:57:49;24.85;;;8.25;;
32788;SDS011;19141;48.980;8.410;2023-02-15T07:00:14;22.75;;;9.05;;
32788;SDS011;19141;48.980;8.410;2023-02-15T07:02:40;18.55;;;6.88;;
32788;SDS011;19141;48.980;8.410;2023-02-15T07:05:06;19.52;;;8.70;;
32788;SDS011;19141;48.980;8.410;2023-02-15T07:07:31;19.05;;;7.43;;
32788;SDS011;19141;48.980;8.410;2023-02-15T07:09:57;23.35;;;8.80;;
32788;SDS011;19141;48.980;8.410;2023-02-15T07:12:22;20.15;;;7.57;;
32788;SDS011;19141;48.980;8.410;2023-02-15T07:15:06;14.40;;;6.45;;
32788;SDS011;19141;48.980;8.410;2023-02-15T07:17:34;19.08;;;7.97;;
32788;SDS011;19141;48.980;8.410;2023-02-15T07:20:01;21.00;;;7.70;;
32788;SDS011;19141;48.980;8.410;2023-02-15T07:22:27;18.23;;;7.93;;
32788;SDS011;19141;48.980;8.410;2023-02-15T07:24:55;14.52;;;5.53;;
32788;SDS011;19141;48.980;8.410;2023-02-15T07:27:20;18.75;;;8.20;;
32788;SDS011;19141;48.980;8.410;2023-02-15T07:29:46;24.90;;;7.70;;
32788;SDS011;19141;48.980;8.410;2023-02-15T07:32:12;18.15;;;7.50;;
32788;SDS011;19141;48.980;8.410;2023-02-15T07:34:38;23.48;;;7.70;;
32788;SDS011;19141;48.980;8.410;2023-02-15T07:37:03;27.52;;;8.60;;
32788;SDS011;19141;48.980;8.410;2023-02-15T07:39:29;19.35;;;8.48;;
32788;SDS011;19141;48.980;8.410;2023-02-15T07:41:55;23.60;;;8.25;;
32788;SDS011;19141;48.980;8.410;2023-02-15T07:44:20;20.73;;;7.85;;
32788;SDS011;19141;48.980;8.410;2023-02-15T07:46:45;16.10;;;6.38;;
32788;SDS011;19141;48.980;8.410;2023-02-15T07:49:11;24.35;;;9.25;;
32788;SDS011;19141;48.980;8.410;2023-02-15T07:51:36;15.93;;;7.63;;
32788;SDS011;19141;48.980;8.410;2023-02-15T07:54:01;22.88;;;7.10;;
32788;SDS011;19141;48.980;8.410;2023-02-15T07:56:27;21.13;;;7.13;;
32788;SDS011;19141;48.980;8.410;2023-02-15T07:58:52;18.95;;;7.88;;
32788;SDS011;19141;48.980;8.410;2023-02-15T08:01:20;26.10;;;8.05;;
32788;SDS011;19141;48.980;8.410;2023-02-15T08:03:48;23.98;;;8.85;;
32788;SDS011;19141;48.980;8.410;2023-02-15T08:06:14;14.13;;;6.43;;
32788;SDS011;19141;48.980;8.410;2023-02-15T08:08:40;17.77;;;7.63;;
32788;SDS011;19141;48.980;8.410;2023-02-15T08:13:57;23.63;;;7.57;;
32788;SDS011;19141;48.980;8.410;2023-02-15T08:19:06;24.85;;;8.68;;
32788;SDS011;19141;48.980;8.410;2023-02-15T08:21:33;26.70;;;8.30;;
32788;SDS011;19141;48.980;8.410;2023-02-15T08:24:00;25.95;;;10.07;;
32788;SDS011;19141;48.980;8.410;2023-02-15T08:26:26;20.63;;;7.63;;
32788;SDS011;19141;48.980;8.410;2023-02-15T08:28:52;16.10;;;8.63;;
32788;SDS011;19141;48.980;8.410;2023-02-15T08:31:19;26.38;;;8.40;;
32788;SDS011;19141;48.980;8.410;2023-02-15T08:33:45;21.83;;;8.00;;
32788;SDS011;19141;48.980;8.410;2023-02-15T08:36:13;13.02;;;6.53;;
32788;SDS011;19141;48.980;8.410;2023-02-15T08:38:40;20.13;;;7.38;;
32788;SDS011;19141;48.980;8.410;2023-02-15T08:41:10;20.35;;;8.55;;
32788;SDS011;19141;48.980;8.410;2023-02-15T08:43:36;20.83;;;8.05;;
32788;SDS011;19141;48.980;8.410;2023-02-15T08:46:01;21.10;;;7.35;;
32788;SDS011;19141;48.980;8.410;2023-02-15T08:48:26;18.00;;;7.25;;
32788;SDS011;19141;48.980;8.410;2023-02-15T08:50:52;22.20;;;8.43;;
32788;SDS011;19141;48.980;8.410;2023-02-15T08:53:17;15.40;;;7.15;;
32788;SDS011;19141;48.980;8.410;2023-02-15T08:55:46;21.13;;;8.77;;
32788;SDS011;19141;48.980;8.410;2023-02-15T08:58:12;19.45;;;7.80;;
32788;SDS011;19141;48.980;8.410;2023-02-15T09:00:37;22.52;;;7.47;;
32788;SDS011;19141;48.980;8.410;2023-02-15T09:03:03;19.77;;;8.30;;
32788;SDS011;19141;48.980;8.410;2023-02-15T09:05:28;24.10;;;7.45;;
32788;SDS011;19141;48.980;8.410;2023-02-15T09:07:53;22.25;;;8.25;;
32788;SDS011;19141;48.980;8.410;2023-02-15T09:10:19;22.55;;;7.38;;
32788;SDS011;19141;48.980;8.410;2023-02-15T09:12:45;21.45;;;7.95;;
32788;SDS011;19141;48.980;8.410;2023-02-15T09:15:10;24.45;;;8.68;;
32788;SDS011;19141;48.980;8.410;2023-02-15T09:17:36;30.15;;;9.00;;
32788;SDS011;19141;48.980;8.410;2023-02-15T09:20:01;24.52;;;7.97;;
32788;SDS011;19141;48.980;8.410;2023-02-15T09:22:27;23.40;;;8.77;;
32788;SDS011;19141;48.980;8.410;2023-02-15T09:24:53;25.77;;;9.48;;
32788;SDS011;19141;48.980;8.410;2023-02-15T09:27:18;17.45;;;6.93;;
32788;SDS011;19141;48.980;8.410;2023-02-15T09:29:44;22.55;;;8.52;;
32788;SDS011;19141;48.980;8.410;2023-02-15T09:32:09;21.60;;;8.52;;
32788;SDS011;19141;48.980;8.410;2023-02-15T09:34:39;23.80;;;8.23;;
32788;SDS011;19141;48.980;8.410;2023-02-15T09:37:05;22.75;;;7.68;;
32788;SDS011;19141;48.980;8.410;2023-02-15T09:39:31;21.45;;;7.93;;
32788;SDS011;19141;48.980;8.410;2023-02-15T09:50:17;18.40;;;7.45;;
32788;SDS011;19141;48.980;8.410;2023-02-15T10:19:27;18.13;;;7.35;;
32788;SDS011;19141;48.980;8.410;2023-02-15T10:24:58;9.25;;;4.50;;
32788;SDS011;19141;48.980;8.410;2023-02-15T10:27:45;17.23;;;7.30;;
32788;SDS011;19141;48.980;8.410;2023-02-15T10:30:14;16.55;;;6.72;;
32788;SDS011;19141;48.980;8.410;2023-02-15T10:46:08;18.17;;;7.38;;
32788;SDS011;19141;48.980;8.410;2023-02-15T10:54:24;13.82;;;6.10;;
32788;SDS011;19141;48.980;8.410;2023-02-15T11:08:07;14.68;;;6.20;;
32788;SDS011;19141;48.980;8.410;2023-02-15T11:10:36;12.00;;;5.57;;
32788;SDS011;19141;48.980;8.410;2023-02-15T11:13:07;14.45;;;6.13;;
32788;SDS011;19141;48.980;8.410;2023-02-15T11:15:38;18.13;;;6.72;;
32788;SDS011;19141;48.980;8.410;2023-02-15T11:18:13;16.88;;;6.47;;
32788;SDS011;19141;48.980;8.410;2023-02-15T11:23:23;14.50;;;6.97;;
32788;SDS011;19141;48.980;8.410;2023-02-15T11:25:57;12.27;;;6.67;;
32788;SDS011;19141;48.980;8.410;2023-02-15T11:28:39;16.33;;;7.30;;
32788;SDS011;19141;48.980;8.410;2023-02-15T11:31:18;15.88;;;6.60;;
32788;SDS011;19141;48.980;8.410;2023-02-15T11:33:47;16.13;;;8.02;;
32788;SDS011;19141;48.980;8.410;2023-02-15T11:36:19;14.10;;;6.93;;
32788;SDS011;19141;48.980;8.410;2023-02-15T11:38:51;15.55;;;6.13;;
32788;SDS011;19141;48.980;8.410;2023-02-15T11:41:22;14.75;;;6.40;;
32788;SDS011;19141;48.980;8.410;2023-02-15T11:46:43;15.80;;;7.55;;
32788;SDS011;19141;48.980;8.410;2023-02-15T11:49:21;14.63;;;6.80;;
32788;SDS011;19141;48.980;8.410;2023-02-15T11:51:55;18.08;;;8.32;;
32788;SDS011;19141;48.980;8.410;2023-02-15T11:54:25;13.82;;;6.95;;
32788;SDS011;19141;48.980;8.410;2023-02-15T11:56:55;18.23;;;7.55;;
32788;SDS011;19141;48.980;8.410;2023-02-15T11:59:42;14.35;;;7.18;;
32788;SDS011;19141;48.980;8.410;2023-02-15T12:02:18;13.50;;;5.80;;
32788;SDS011;19141;48.980;8.410;2023-02-15T12:04:48;15.48;;;6.00;;
32788;SDS011;19141;48.980;8.410;2023-02-15T12:13:09;13.90;;;6.40;;
32788;SDS011;19141;48.980;8.410;2023-02-15T12:18:04;11.63;;;5.68;;
32788;SDS011;19141;48.980;8.410;2023-02-15T12:20:31;13.13;;;5.85;;
32788;SDS011;19141;48.980;8.410;2023-02-15T12:23:05;14.82;;;6.57;;
32788;SDS011;19141;48.980;8.410;2023-02-15T12:25:54;11.40;;;6.43;;
32788;SDS011;19141;48.980;8.410;2023-02-15T12:28:35;11.35;;;7.00;;
32788;SDS011;19141;48.980;8.410;2023-02-15T12:31:23;18.23;;;8.70;;
32788;SDS011;19141;48.980;8.410;2023-02-15T12:33:52;14.25;;;6.13;;
32788;SDS011;19141;48.980;8.410;2023-02-15T12:41:37;15.02;;;6.70;;
32788;SDS011;19141;48.980;8.410;2023-02-15T12:44:18;15.45;;;7.53;;
32788;SDS011;19141;48.980;8.410;2023-02-15T12:47:04;11.40;;;6.55;;
32788;SDS011;19141;48.980;8.410;2023-02-15T12:49:36;15.07;;;6.75;;
32788;SDS011;19141;48.980;8.410;2023-02-15T12:54:43;15.10;;;7.60;;
32788;SDS011;19141;48.980;8.410;2023-02-15T12:57:26;18.35;;;9.05;;
32788;SDS011;19141;48.980;8.410;2023-02-15T12:59:57;14.45;;;8.38;;
32788;SDS011;19141;48.980;8.410;2023-02-15T13:02:48;14.80;;;7.57;;
32788;SDS011;19141;48.980;8.410;2023-02-15T13:05:21;15.63;;;8.38;;
32788;SDS011;19141;48.980;8.410;2023-02-15T13:10:40;18.42;;;7.40;;
32788;SDS011;19141;48.980;8.410;2023-02-15T13:13:19;15.05;;;8.10;;
32788;SDS011;19141;48.980;8.410;2023-02-15T13:15:48;17.77;;;8.30;;
32788;SDS011;19141;48.980;8.410;2023-02-15T13:18:21;18.48;;;7.28;;
32788;SDS011;19141;48.980;8.410;2023-02-15T13:20:54;18.10;;;8.68;;
32788;SDS011;19141;48.980;8.410;2023-02-15T13:23:26;20.33;;;8.82;;
32788;SDS011;19141;48.980;8.410;2023-02-15T13:25:54;19.58;;;9.55;;
32788;SDS011;19141;48.980;8.410;2023-02-15T13:28:24;18.10;;;9.43;;
32788;SDS011;19141;48.980;8.410;2023-02-15T13:30:57;22.23;;;10.25;;
32788;SDS011;19141;48.980;8.410;2023-02-15T13:33:25;20.63;;;10.40;;
32788;SDS011;19141;48.980;8.410;2023-02-15T13:35:59;21.15;;;10.65;;
32788;SDS011;19141;48.980;8.410;2023-02-15T13:38:33;18.13;;;9.90;;
32788;SDS011;19141;48.980;8.410;2023-02-15T13:41:12;22.60;;;10.93;;
32788;SDS011;19141;48.980;8.410;2023-02-15T13:51:55;21.73;;;9.32;;
32788;SDS011;19141;48.980;8.410;2023-02-15T13:57:11;16.80;;;8.95;;
32788;SDS011;19141;48.980;8.410;2023-02-15T13:59:43;16.77;;;9.30;;
32788;SDS011;19141;48.980;8.410;2023-02-15T14:02:30;17.15;;;9.65;;
32788;SDS011;19141;48.980;8.410;2023-02-15T14:10:00;17.50;;;9.45;;
32788;SDS011;19141;48.980;8.410;2023-02-15T14:21:17;16.63;;;8.15;;
32788;SDS011;19141;48.980;8.410;2023-02-15T14:32:16;16.70;;;8.52;;
32788;SDS011;19141;48.980;8.410;2023-02-15T14:34:50;16.67;;;8.43;;
32788;SDS011;19141;48.980;8.410;2023-02-15T14:40:16;13.85;;;7.70;;
32788;SDS011;19141;48.980;8.410;2023-02-15T14:48:28;18.30;;;9.85;;
32788;SDS011;19141;48.980;8.410;2023-02-15T14:50:56;16.35;;;7.97;;
32788;SDS011;19141;48.980;8.410;2023-02-15T14:58:35;17.60;;;8.88;;
32788;SDS011;19141;48.980;8.410;2023-02-15T15:01:07;9.88;;;6.70;;
32788;SDS011;19141;48.980;8.410;2023-02-15T15:03:34;17.92;;;8.18;;
32788;SDS011;19141;48.980;8.410;2023-02-15T15:06:01;15.13;;;7.28;;
32788;SDS011;19141;48.980;8.410;2023-02-15T15:08:33;9.40;;;6.03;;
32788;SDS011;19141;48.980;8.410;2023-02-15T15:14:36;17.92;;;7.88;;
32788;SDS011;19141;48.980;8.410;2023-02-15T15:17:00;15.05;;;7.60;;
32788;SDS011;19141;48.980;8.410;2023-02-15T15:22:20;16.27;;;7.55;;
32788;SDS011;19141;48.980;8.410;2023-02-15T15:24:50;15.38;;;8.13;;
32788;SDS011;19141;48.980;8.410;2023-02-15T15:32:59;11.95;;;6.40;;
32788;SDS011;19141;48.980;8.410;2023-02-15T15:35:54;11.82;;;7.45;;
32788;SDS011;19141;48.980;8.410;2023-02-15T15:41:35;13.60;;;6.82;;
32788;SDS011;19141;48.980;8.410;2023-02-15T15:51:49;10.70;;;6.47;;
32788;SDS011;19141;48.980;8.410;2023-02-15T15:54:19;12.10;;;6.20;;
32788;SDS011;19141;48.980;8.410;2023-02-15T15:57:04;14.85;;;6.78;;
32788;SDS011;19141;48.980;8.410;2023-02-15T15:59:32;11.82;;;6.78;;
32788;SDS011;19141;48.980;8.410;2023-02-15T16:02:11;12.82;;;7.32;;
32788;SDS011;19141;48.980;8.410;2023-02-15T16:04:41;12.95;;;7.53;;
32788;SDS011;19141;48.980;8.410;2023-02-15T16:07:14;12.18;;;6.82;;
32788;SDS011;19141;48.980;8.410;2023-02-15T16:10:04;16.77;;;6.20;;
32788;SDS011;19141;48.980;8.410;2023-02-15T16:12:33;11.82;;;6.15;;
32788;SDS011;19141;48.980;8.410;2023-02-15T16:15:22;10.73;;;5.97;;
32788;SDS011;19141;48.980;8.410;2023-02-15T16:17:52;17.70;;;8.00;;
32788;SDS011;19141;48.980;8.410;2023-02-15T16:28:54;13.80;;;7.30;;
32788;SDS011;19141;48.980;8.410;2023-02-15T16:31:20;18.33;;;8.40;;
32788;SDS011;19141;48.980;8.410;2023-02-15T16:33:52;12.40;;;7.10;;
32788;SDS011;19141;48.980;8.410;2023-02-15T16:36:28;18.25;;;8.35;;
32788;SDS011;19141;48.980;8.410;2023-02-15T16:41:23;14.63;;;7.93;;
32788;SDS011;19141;48.980;8.410;2023-02-15T16:43:52;17.60;;;8.23;;
32788;SDS011;19141;48.980;8.410;2023-02-15T16:46:26;18.33;;;8.85;;
32788;SDS011;19141;48.980;8.410;2023-02-15T16:48:55;14.02;;;7.47;;
32788;SDS011;19141;48.980;8.410;2023-02-15T16:51:27;14.55;;;7.30;;
32788;SDS011;19141;48.980;8.410;2023-02-15T16:53:55;18.50;;;9.30;;
32788;SDS011;19141;48.980;8.410;2023-02-15T16:56:23;12.65;;;7.53;;
32788;SDS011;19141;48.980;8.410;2023-02-15T16:58:51;15.48;;;7.22;;
32788;SDS011;19141;48.980;8.410;2023-02-15T17:01:20;13.18;;;7.10;;
32788;SDS011;19141;48.980;8.410;2023-02-15T17:03:49;16.58;;;8.13;;
32788;SDS011;19141;48.980;8.410;2023-02-15T17:06:21;16.33;;;8.25;;
32788;SDS011;19141;48.980;8.410;2023-02-15T17:08:50;19.10;;;7.57;;
32788;SDS011;19141;48.980;8.410;2023-02-15T17:11:33;14.65;;;7.07;;
32788;SDS011;19141;48.980;8.410;2023-02-15T17:16:50;16.30;;;8.23;;
32788;SDS011;19141;48.980;8.410;2023-02-15T17:19:25;16.35;;;8.65;;
32788;SDS011;19141;48.980;8.410;2023-02-15T17:22:00;12.15;;;6.82;;
32788;SDS011;19141;48.980;8.410;2023-02-15T17:27:12;17.30;;;7.53;;
32788;SDS011;19141;48.980;8.410;2023-02-15T17:32:24;12.10;;;5.75;;
32788;SDS011;19141;48.980;8.410;2023-02-15T17:40:14;17.65;;;8.35;;
32788;SDS011;19141;48.980;8.410;2023-02-15T17:42:41;13.55;;;7.88;;
32788;SDS011;19141;48.980;8.410;2023-02-15T17:45:07;12.50;;;7.32;;
32788;SDS011;19141;48.980;8.410;2023-02-15T17:47:32;15.05;;;7.07;;
32788;SDS011;19141;48.980;8.410;2023-02-15T17:49:58;14.07;;;7.78;;
32788;SDS011;19141;48.980;8.410;2023-02-15T17:54:53;19.35;;;7.30;;
32788;SDS011;19141;48.980;8.410;2023-02-15T17:57:37;15.73;;;7.90;;
32788;SDS011;19141;48.980;8.410;2023-02-15T18:00:03;16.60;;;7.97;;
32788;SDS011;19141;48.980;8.410;2023-02-15T18:02:48;17.33;;;8.20;;
32788;SDS011;19141;48.980;8.410;2023-02-15T18:05:32;16.88;;;7.75;;
32788;SDS011;19141;48.980;8.410;2023-02-15T18:08:17;16.25;;;8.95;;
32788;SDS011;19141;48.980;8.410;2023-02-15T18:11:07;18.65;;;8.05;;
32788;SDS011;19141;48.980;8.410;2023-02-15T18:13:52;18.20;;;8.45;;
32788;SDS011;19141;48.980;8.410;2023-02-15T18:16:19;15.52;;;6.63;;
32788;SDS011;19141;48.980;8.410;2023-02-15T18:18:47;12.45;;;6.68;;
32788;SDS011;19141;48.980;8.410;2023-02-15T18:21:13;19.00;;;8.30;;
32788;SDS011;19141;48.980;8.410;2023-02-15T18:23:39;14.00;;;8.07;;
32788;SDS011;19141;48.980;8.410;2023-02-15T18:26:05;20.33;;;8.52;;
32788;SDS011;19141;48.980;8.410;2023-02-15T18:28:31;12.13;;;6.88;;
32788;SDS011;19141;48.980;8.410;2023-02-15T18:30:57;9.63;;;6.43;;
32788;SDS011;19141;48.980;8.410;2023-02-15T18:33:26;12.48;;;7.38;;
32788;SDS011;19141;48.980;8.410;2023-02-15T18:36:25;18.77;;;7.47;;
32788;SDS011;19141;48.980;8.410;2023-02-15T18:38:53;19.80;;;7.90;;
32788;SDS011;19141;48.980;8.410;2023-02-15T18:41:20;13.15;;;5.97;;
32788;SDS011;19141;48.980;8.410;2023-02-15T18:43:46;15.52;;;7.18;;
32788;SDS011;19141;48.980;8.410;2023-02-15T18:46:15;14.00;;;8.30;;
32788;SDS011;19141;48.980;8.410;2023-02-15T18:48:41;16.13;;;7.10;;
32788;SDS011;19141;48.980;8.410;2023-02-15T18:51:25;14.75;;;6.57;;
32788;SDS011;19141;48.980;8.410;2023-02-15T18:53:51;15.13;;;6.97;;
32788;SDS011;19141;48.980;8.410;2023-02-15T18:56:18;13.93;;;7.28;;
32788;SDS011;19141;48.980;8.410;2023-02-15T18:58:46;19.80;;;8.57;;
32788;SDS011;19141;48.980;8.410;2023-02-15T19:01:16;14.80;;;6.88;;
32788;SDS011;19141;48.980;8.410;2023-02-15T19:03:44;12.32;;;6.85;;
32788;SDS011;19141;48.980;8.410;2023-02-15T19:06:10;16.10;;;8.25;;
32788;SDS011;19141;48.980;8.410;2023-02-15T19:08:38;16.45;;;7.35;;
32788;SDS011;19141;48.980;8.410;2023-02-15T19:11:04;14.00;;;7.50;;
32788;SDS011;19141;48.980;8.410;2023-02-15T19:13:30;13.73;;;7.43;;
32788;SDS011;19141;48.980;8.410;2023-02-15T19:15:55;15.77;;;7.22;;
32788;SDS011;19141;48.980;8.410;2023-02-15T19:18:22;15.82;;;8.43;;
32788;SDS011;19141;48.980;8.410;2023-02-15T19:20:47;13.57;;;7.65;;
32788;SDS011;19141;48.980;8.410;2023-02-15T19:23:14;14.32;;;7.50;;
32788;SDS011;19141;48.980;8.410;2023-02-15T19:25:43;10.27;;;6.40;;
32788;SDS011;19141;48.980;8.410;2023-02-15T19:28:17;18.05;;;7.50;;
32788;SDS011;19141;48.980;8.410;2023-02-15T19:30:45;13.82;;;7.57;;
32788;SDS011;19141;48.980;8.410;2023-02-15T19:33:17;18.00;;;7.72;;
32788;SDS011;19141;48.980;8.410;2023-02-15T19:35:45;19.58;;;8.65;;
32788;SDS011;19141;48.980;8.410;2023-02-15T19:40:40;11.50;;;5.95;;
32788;SDS011;19141;48.980;8.410;2023-02-15T19:43:11;14.32;;;6.95;;
32788;SDS011;19141;48.980;8.410;2023-02-15T19:45:40;15.45;;;7.50;;
32788;SDS011;19141;48.980;8.410;2023-02-15T19:48:05;12.40;;;6.47;;
32788;SDS011;19141;48.980;8.410;2023-02-15T19:50:32;15.95;;;8.27;;
32788;SDS011;19141;48.980;8.410;2023-02-15T19:52:58;13.07;;;6.78;;
32788;SDS011;19141;48.980;8.410;2023-02-15T19:55:25;11.27;;;6.55;;
32788;SDS011;19141;48.980;8.410;2023-02-15T19:57:52;12.77;;;7.13;;
32788;SDS011;19141;48.980;8.410;2023-02-15T20:00:22;13.45;;;8.13;;
32788;SDS011;19141;48.980;8.410;2023-02-15T20:02:50;19.70;;;8.05;;
32788;SDS011;19141;48.980;8.410;2023-02-15T20:05:16;14.57;;;7.38;;
32788;SDS011;19141;48.980;8.410;2023-02-15T20:07:43;11.65;;;7.53;;
32788;SDS011;19141;48.980;8.410;2023-02-15T20:12:40;15.30;;;8.40;;
32788;SDS011;19141;48.980;8.410;2023-02-15T20:15:25;16.27;;;9.18;;
32788;SDS011;19141;48.980;8.410;2023-02-15T20:17:53;13.93;;;8.48;;
32788;SDS011;19141;48.980;8.410;2023-02-15T20:20:20;18.40;;;8.70;;
32788;SDS011;19141;48.980;8.410;2023-02-15T20:22:48;24.48;;;10.13;;
32788;SDS011;19141;48.980;8.410;2023-02-15T20:25:18;18.85;;;9.18;;
32788;SDS011;19141;48.980;8.410;2023-02-15T20:27:46;14.60;;;8.43;;
32788;SDS011;19141;48.980;8.410;2023-02-15T20:30:28;14.65;;;6.45;;
32788;SDS011;19141;48.980;8.410;2023-02-15T20:32:55;14.13;;;7.47;;
32788;SDS011;19141;48.980;8.410;2023-02-15T20:35:21;11.60;;;7.03;;
32788;SDS011;19141;48.980;8.410;2023-02-15T20:37:50;13.18;;;7.03;;
32788;SDS011;19141;48.980;8.410;2023-02-15T20:42:45;19.47;;;7.30;;
32788;SDS011;19141;48.980;8.410;2023-02-15T20:47:47;11.73;;;6.15;;
32788;SDS011;19141;48.980;8.410;2023-02-15T20:50:13;13.63;;;7.15;;
32788;SDS011;19141;48.980;8.410;2023-02-15T20:52:40;17.10;;;9.20;;
32788;SDS011;19141;48.980;8.410;2023-02-15T20:55:11;16.15;;;6.93;;
32788;SDS011;19141;48.980;8.410;2023-02-15T20:57:41;12.85;;;7.80;;
32788;SDS011;19141;48.980;8.410;2023-02-15T21:00:16;18.00;;;7.93;;
32788;SDS011;19141;48.980;8.410;2023-02-15T21:02:48;15.50;;;8.27;;
32788;SDS011;19141;48.980;8.410;2023-02-15T21:05:19;15.57;;;8.18;;
32788;SDS011;19141;48.980;8.410;2023-02-15T21:07:47;12.48;;;7.30;;
32788;SDS011;19141;48.980;8.410;2023-02-15T21:10:14;11.63;;;7.22;;
32788;SDS011;19141;48.980;8.410;2023-02-15T21:12:44;17.25;;;7.72;;
32788;SDS011;19141;48.980;8.410;2023-02-15T21:17:57;11.70;;;7.13;;
32788;SDS011;19141;48.980;8.410;2023-02-15T21:20:25;12.95;;;7.65;;
32788;SDS011;19141;48.980;8.410;2023-02-15T21:22:51;15.00;;;6.53;;
32788;SDS011;19141;48.980;8.410;2023-02-15T21:25:26;11.82;;;6.40;;
32788;SDS011;19141;48.980;8.410;2023-02-15T21:27:54;15.07;;;6.90;;
32788;SDS011;19141;48.980;8.410;2023-02-15T21:30:20;14.75;;;8.30;;
32788;SDS011;19141;48.980;8.410;2023-02-15T21:32:47;13.60;;;6.32;;
32788;SDS011;19141;48.980;8.410;2023-02-15T21:35:14;11.68;;;5.80;;
32788;SDS011;19141;48.980;8.410;2023-02-15T21:37:40;13.68;;;6.38;;
32788;SDS011;19141;48.980;8.410;2023-02-15T21:40:18;10.00;;;5.65;;
32788;SDS011;19141;48.980;8.410;2023-02-15T21:42:46;12.05;;;6.25;;
32788;SDS011;19141;48.980;8.410;2023-02-15T21:45:30;10.15;;;6.45;;
32788;SDS011;19141;48.980;8.410;2023-02-15T21:48:14;13.15;;;7.10;;
32788;SDS011;19141;48.980;8.410;2023-02-15T21:50:40;12.40;;;5.25;;
32788;SDS011;19141;48.980;8.410;2023-02-15T21:53:34;12.80;;;5.95;;
32788;SDS011;19141;48.980;8.410;2023-02-15T21:56:04;15.20;;;7.63;;
32788;SDS011;19141;48.980;8.410;2023-02-15T21:58:31;8.30;;;4.63;;
32788;SDS011;19141;48.980;8.410;2023-02-15T22:00:59;9.93;;;6.18;;
32788;SDS011;19141;48.980;8.410;2023-02-15T22:03:30;7.82;;;5.15;;
32788;SDS011;19141;48.980;8.410;2023-02-15T22:05:57;13.10;;;6.03;;
32788;SDS011;19141;48.980;8.410;2023-02-15T22:08:23;14.48;;;6.50;;
32788;SDS011;19141;48.980;8.410;2023-02-15T22:10:48;14.65;;;6.43;;
32788;SDS011;19141;48.980;8.410;2023-02-15T22:13:15;8.02;;;5.15;;
32788;SDS011;19141;48.980;8.410;2023-02-15T22:15:43;10.82;;;6.22;;
32788;SDS011;19141;48.980;8.410;2023-02-15T22:18:21;9.43;;;5.35;;
32788;SDS011;19141;48.980;8.410;2023-02-15T22:20:51;10.60;;;6.68;;
32788;SDS011;19141;48.980;8.410;2023-02-15T22:23:18;13.18;;;6.47;;
32788;SDS011;19141;48.980;8.410;2023-02-15T22:26:17;11.35;;;6.30;;
32788;SDS011;19141;48.980;8.410;2023-02-15T22:28:39;9.57;;;5.88;;
32788;SDS011;19141;48.980;8.410;2023-02-15T22:31:09;9.97;;;5.37;;
32788;SDS011;19141;48.980;8.410;2023-02-15T22:33:38;15.15;;;6.85;;
32788;SDS011;19141;48.980;8.410;2023-02-15T22:36:04;13.80;;;6.57;;
32788;SDS011;19141;48.980;8.410;2023-02-15T22:38:29;9.82;;;5.55;;
32788;SDS011;19141;48.980;8.410;2023-02-15T22:40:56;9.90;;;6.10;;
32788;SDS011;19141;48.980;8.410;2023-02-15T22:46:02;9.73;;;5.32;;
32788;SDS011;19141;48.980;8.410;2023-02-15T22:48:30;14.98;;;7.22;;
32788;SDS011;19141;48.980;8.410;2023-02-15T22:50:55;10.05;;;5.57;;
32788;SDS011;19141;48.980;8.410;2023-02-15T22:53:21;10.18;;;6.20;;
32788;SDS011;19141;48.980;8.410;2023-02-15T22:55:46;12.15;;;6.43;;
32788;SDS011;19141;48.980;8.410;2023-02-15T22:58:15;11.43;;;6.25;;
